Terminal Aerodrome Forecast
Issued by NWS Cleveland, OH

Home | Current Version | Previous Version | Text Only | Print | Product List | Glossary On
Versions: 1 2 3 4 5 6 7 8 9 10 11 12 13 14 15 16 17
000
FTUS41 KCLE 062342
TAFERI
TAF
KERI 062342Z 0700/0724 33004KT P6SM VCSH OVC050
     FM070200 VRB03KT P6SM OVC250
     FM070400 19009KT P6SM BKN250
     FM071400 21010G20KT P6SM BKN250
     FM071900 24010G20KT 4SM TSRA BR OVC025CB
     FM072200 24010G20KT 2SM -RA BR OVC025
     FM072300 24007KT 2SM -RA BR OVC007=

USA.gov is the U.S. government's official web portal to all federal, state and local government web resources and services.